Time;durP1;ratioP1;P1;durP2;ratioP2;P2;SDS_P1;SDS_P2;PMS_P1;PMS_P2;Temp;Humidity;BMP_temperature;BMP_pressure;BME280_temperature;BME280_humidity;BME280_pressure;Samples;Min_cycle;Max_cycle;Signal;HPM_P1;HPM_P2
2022/12/07 00:00:25;;;;;;;;;4.00;4.00;;;;;19.84;57.77;100188.15;105893;1289;18921;-62
2022/12/07 00:03:08;;;;;;;;;2.00;2.00;;;;;19.85;57.58;100188.96;105770;1280;20790;-61
2022/12/07 00:05:36;;;;;;;;;2.00;2.00;;;;;19.84;57.67;100184.80;105835;1280;18414;-62
2022/12/07 00:08:03;;;;;;;;;2.00;2.00;;;;;19.84;57.64;100184.59;105935;1294;19934;-61
2022/12/07 00:10:31;;;;;;;;;3.00;2.00;;;;;19.83;57.69;100187.75;105757;1282;22702;-61
2022/12/07 00:12:58;;;;;;;;;4.00;4.00;;;;;19.83;57.52;100188.30;105809;1272;18409;-61
2022/12/07 00:15:26;;;;;;;;;2.00;2.00;;;;;19.84;57.52;100189.40;105780;1285;20248;-63
2022/12/07 00:17:53;;;;;;;;;3.00;3.00;;;;;19.85;57.64;100187.36;105759;1280;153249;-61
2022/12/07 00:20:20;;;;;;;;;4.00;3.00;;;;;19.85;57.73;100182.60;105941;1295;18290;-61
2022/12/07 00:22:48;;;;;;;;;4.50;4.50;;;;;19.84;57.63;100176.94;105831;1280;23547;-62
2022/12/07 00:25:15;;;;;;;;;4.00;4.00;;;;;19.84;57.52;100173.52;105859;1286;20688;-62
2022/12/07 00:27:43;;;;;;;;;2.00;2.00;;;;;19.84;57.65;100172.76;105885;1280;19798;-62
2022/12/07 00:30:10;;;;;;;;;2.00;2.00;;;;;19.84;57.44;100170.75;105817;1293;21335;-62
2022/12/07 00:32:37;;;;;;;;;2.00;2.00;;;;;19.83;57.59;100173.98;105899;1289;19337;-62
2022/12/07 00:35:05;;;;;;;;;2.00;2.00;;;;;19.82;57.70;100170.31;105854;1272;24102;-62
2022/12/07 00:37:32;;;;;;;;;2.00;2.00;;;;;19.82;57.53;100167.31;105821;1295;18661;-60
2022/12/07 00:40:00;;;;;;;;;2.00;2.00;;;;;19.82;57.43;100168.84;105871;1292;19730;-62
2022/12/07 00:42:27;;;;;;;;;2.00;2.00;;;;;19.82;57.60;100168.85;105692;1273;18362;-62
2022/12/07 00:44:55;;;;;;;;;2.00;2.00;;;;;19.83;57.54;100170.60;105596;1295;18509;-62
2022/12/07 00:47:22;;;;;;;;;2.00;1.50;;;;;19.83;57.58;100169.35;105925;1280;21515;-62
2022/12/07 00:49:49;;;;;;;;;4.00;2.00;;;;;19.82;57.33;100168.09;105775;1280;20942;-62
2022/12/07 00:52:17;;;;;;;;;2.00;2.00;;;;;19.82;57.47;100168.67;105835;1280;19957;-62
2022/12/07 00:54:44;;;;;;;;;2.00;2.00;;;;;19.83;57.33;100169.52;105848;1280;20680;-62
2022/12/07 00:57:12;;;;;;;;;2.00;2.00;;;;;19.82;57.32;100162.93;105871;1288;19599;-62
2022/12/07 00:59:39;;;;;;;;;2.00;2.00;;;;;19.81;57.33;100163.17;105871;1280;18587;-64
2022/12/07 01:02:07;;;;;;;;;2.00;2.00;;;;;19.81;57.21;100159.88;105882;1295;19308;-61
2022/12/07 01:04:34;;;;;;;;;2.00;2.00;;;;;19.81;57.45;100161.77;105866;1294;18348;-62
2022/12/07 01:07:01;;;;;;;;;1.50;1.50;;;;;19.80;57.35;100159.64;105779;1272;22661;-61
2022/12/07 01:09:29;;;;;;;;;4.50;2.00;;;;;19.81;57.31;100161.06;105833;1279;20546;-62
2022/12/07 01:11:56;;;;;;;;;2.00;2.00;;;;;19.80;57.34;100158.25;105677;1286;18524;-62
2022/12/07 01:14:24;;;;;;;;;2.00;2.00;;;;;19.81;57.33;100154.88;105921;1295;20243;-62
2022/12/07 01:16:51;;;;;;;;;2.00;2.00;;;;;19.80;57.22;100151.70;105839;1280;19361;-62
2022/12/07 01:19:19;;;;;;;;;1.00;1.00;;;;;19.79;57.46;100148.52;105760;1280;20022;-61
2022/12/07 01:21:46;;;;;;;;;2.00;1.50;;;;;19.79;57.25;100145.89;105900;1280;19947;-61
2022/12/07 01:24:13;;;;;;;;;2.00;2.00;;;;;19.79;57.46;100144.80;105842;1289;19326;-62
2022/12/07 01:26:41;;;;;;;;;2.00;2.00;;;;;19.78;57.25;100136.48;105872;1276;18361;-63
2022/12/07 01:29:08;;;;;;;;;1.00;1.00;;;;;19.78;57.21;100139.23;105937;1280;21313;-62
2022/12/07 01:31:36;;;;;;;;;1.50;1.50;;;;;19.78;57.38;100132.24;105754;1295;19382;-63
2022/12/07 01:34:03;;;;;;;;;1.50;1.50;;;;;19.78;57.27;100130.23;105751;1279;18426;-63
2022/12/07 01:36:31;;;;;;;;;2.00;2.00;;;;;19.78;57.26;100130.16;105822;1273;19566;-61
2022/12/07 01:38:58;;;;;;;;;2.00;2.00;;;;;19.79;57.18;100128.20;105826;1272;20850;-63
2022/12/07 01:41:25;;;;;;;;;2.00;2.00;;;;;19.79;57.28;100126.64;105801;1295;18503;-63
2022/12/07 01:43:53;;;;;;;;;2.00;2.00;;;;;19.79;57.08;100122.70;105820;1294;18962;-64
2022/12/07 01:46:20;;;;;;;;;2.00;1.00;;;;;19.78;57.05;100118.77;105833;1265;20726;-61
2022/12/07 01:48:48;;;;;;;;;4.00;4.00;;;;;19.77;57.22;100119.23;105849;1286;20188;-62
2022/12/07 01:51:15;;;;;;;;;2.00;2.00;;;;;19.77;57.07;100113.07;105895;1294;18499;-63
2022/12/07 01:53:42;;;;;;;;;1.00;1.00;;;;;19.78;57.14;100115.17;105894;1294;20407;-62
2022/12/07 01:56:10;;;;;;;;;2.00;2.00;;;;;19.77;56.95;100116.34;105910;1294;22319;-63
2022/12/07 01:58:37;;;;;;;;;1.50;1.50;;;;;19.77;56.89;100112.94;105861;1294;18489;-63
2022/12/07 02:01:05;;;;;;;;;1.00;1.00;;;;;19.78;57.12;100109.98;105861;1279;22642;-62
2022/12/07 02:03:32;;;;;;;;;4.00;2.00;;;;;19.78;57.12;100102.36;105863;1288;19673;-63
2022/12/07 02:06:00;;;;;;;;;2.00;2.00;;;;;19.77;57.05;100103.74;105843;1294;18616;-63
2022/12/07 02:08:27;;;;;;;;;1.00;1.00;;;;;19.76;57.03;100098.70;105836;1272;19300;-62
2022/12/07 02:10:55;;;;;;;;;2.00;2.00;;;;;19.76;57.04;100095.79;105782;1272;22891;-61
2022/12/07 02:13:22;;;;;;;;;2.00;2.00;;;;;19.76;56.99;100091.52;105770;1294;19935;-62
2022/12/07 02:15:50;;;;;;;;;2.00;2.00;;;;;19.76;57.04;100088.05;105808;1280;19640;-62
2022/12/07 02:18:17;;;;;;;;;;;;;;;19.77;57.07;100083.08;105781;1279;18673;-61
2022/12/07 02:20:44;;;;;;;;;2.00;2.00;;;;;19.76;56.94;100080.39;105898;1280;18220;-63
2022/12/07 02:23:12;;;;;;;;;1.50;1.50;;;;;19.75;56.88;100073.61;105938;1295;20683;-61
2022/12/07 02:25:39;;;;;;;;;1.50;1.50;;;;;19.76;57.09;100073.36;105847;1280;18893;-62
2022/12/07 02:28:07;;;;;;;;;1.00;1.00;;;;;19.74;56.89;100072.62;105850;1279;18450;-62
2022/12/07 02:30:34;;;;;;;;;2.00;1.00;;;;;19.76;56.93;100071.40;105841;1298;22797;-61
2022/12/07 02:33:01;;;;;;;;;1.00;1.00;;;;;19.75;56.97;100072.14;105886;1279;18370;-62
2022/12/07 02:35:29;;;;;;;;;2.00;2.00;;;;;19.75;56.86;100069.84;105937;1285;20166;-62
2022/12/07 02:37:56;;;;;;;;;1.00;1.00;;;;;19.78;56.77;100080.23;105899;1295;19503;-62
2022/12/07 02:40:24;;;;;;;;;1.00;1.00;;;;;19.77;56.76;100075.30;105887;1280;18381;-62
2022/12/07 02:42:51;;;;;;;;;2.00;2.00;;;;;19.75;56.83;100070.91;105843;1293;22262;-60
2022/12/07 02:45:19;;;;;;;;;1.00;1.00;;;;;19.75;56.75;100073.68;105887;1295;20899;-63
2022/12/07 02:47:46;;;;;;;;;1.00;1.00;;;;;19.75;56.80;100073.30;105858;1279;21197;-60
2022/12/07 02:50:13;;;;;;;;;2.00;2.00;;;;;19.73;56.84;100070.04;105913;1288;20337;-61
2022/12/07 02:52:41;;;;;;;;;1.00;1.00;;;;;19.74;56.73;100064.16;105840;1294;19492;-61
2022/12/07 02:55:08;;;;;;;;;1.00;1.00;;;;;19.74;56.54;100063.03;105813;1279;18778;-62
2022/12/07 02:57:36;;;;;;;;;1.00;1.00;;;;;19.74;56.60;100065.25;105749;1295;18612;-61
2022/12/07 03:00:03;;;;;;;;;2.00;1.00;;;;;19.72;56.84;100059.24;105724;1278;19883;-61
2022/12/07 03:02:31;;;;;;;;;2.00;2.00;;;;;19.72;56.83;100059.08;105765;1293;19654;-62
2022/12/07 03:04:58;;;;;;;;;1.50;1.50;;;;;19.73;56.72;100064.27;105837;1295;20067;-61
2022/12/07 03:07:25;;;;;;;;;2.00;2.00;;;;;19.73;56.81;100061.14;105823;1279;20858;-61
2022/12/07 03:09:53;;;;;;;;;1.00;1.00;;;;;19.72;56.54;100063.59;105851;1286;20276;-61
2022/12/07 03:12:20;;;;;;;;;1.00;1.00;;;;;19.72;56.76;100058.36;105851;1295;20714;-61
2022/12/07 03:14:48;;;;;;;;;2.00;2.00;;;;;19.73;56.63;100061.73;105871;1288;19289;-61
2022/12/07 03:17:15;;;;;;;;;1.00;1.00;;;;;19.72;56.63;100055.14;105928;1294;18366;-62
2022/12/07 03:19:42;;;;;;;;;1.00;1.00;;;;;19.71;56.79;100053.99;105861;1294;18483;-62
2022/12/07 03:22:10;;;;;;;;;1.00;1.00;;;;;19.71;56.51;100052.38;105842;1295;21063;-63
2022/12/07 03:24:37;;;;;;;;;2.00;1.00;;;;;19.70;56.72;100050.48;105872;1286;18363;-63
2022/12/07 03:27:05;;;;;;;;;1.00;1.00;;;;;19.71;56.55;100050.86;105820;1280;18602;-63
2022/12/07 03:29:32;;;;;;;;;1.00;1.00;;;;;19.71;56.63;100052.70;105904;1288;20790;-63
2022/12/07 03:32:00;;;;;;;;;1.00;1.00;;;;;19.71;56.47;100047.31;105787;1280;19663;-63
2022/12/07 03:34:27;;;;;;;;;2.50;1.00;;;;;19.71;56.50;100047.83;105804;1292;22818;-63
2022/12/07 03:36:54;;;;;;;;;1.00;1.00;;;;;19.71;56.43;100044.21;105866;1280;19145;-63
2022/12/07 03:39:22;;;;;;;;;;;;;;;19.72;56.40;100043.55;105863;1294;19826;-63
2022/12/07 03:41:49;;;;;;;;;1.00;1.00;;;;;19.71;56.66;100038.73;105899;1273;18204;-62
2022/12/07 03:44:17;;;;;;;;;1.00;1.00;;;;;19.71;56.62;100033.73;105905;1285;19490;-62
2022/12/07 03:46:44;;;;;;;;;2.00;2.00;;;;;19.70;56.61;100035.09;105727;1280;18543;-62
2022/12/07 03:49:12;;;;;;;;;2.00;2.00;;;;;19.71;56.54;100033.88;105734;1286;23181;-62
2022/12/07 03:51:39;;;;;;;;;1.50;1.50;;;;;19.71;56.42;100030.11;105775;1295;19598;-63
2022/12/07 03:54:07;;;;;;;;;1.00;1.00;;;;;19.71;56.67;100029.66;105856;1280;18368;-63
2022/12/07 03:56:34;;;;;;;;;1.50;1.00;;;;;19.71;56.47;100023.89;105731;1279;18498;-62
2022/12/07 03:59:01;;;;;;;;;1.00;1.00;;;;;19.72;56.49;100025.02;105769;1276;19288;-62
2022/12/07 04:01:29;;;;;;;;;2.00;2.00;;;;;19.70;56.30;100022.34;105830;1278;20629;-62
2022/12/07 04:03:56;;;;;;;;;2.00;2.00;;;;;19.71;56.49;100019.79;105766;1285;20207;-61
2022/12/07 04:06:24;;;;;;;;;2.00;1.00;;;;;19.70;56.54;100020.73;105749;1288;23977;-61
2022/12/07 04:08:51;;;;;;;;;1.00;1.00;;;;;19.71;56.52;100016.52;105738;1279;20638;-62
2022/12/07 04:11:18;;;;;;;;;1.00;1.00;;;;;19.70;56.51;100014.17;105860;1280;20921;-61
2022/12/07 04:16:31;;;;;;;;;1.00;1.00;;;;;19.69;56.31;100011.60;105856;1280;18372;-63
2022/12/07 04:18:59;;;;;;;;;1.00;1.00;;;;;19.69;56.37;100010.52;105824;1286;23954;-63
2022/12/07 04:21:26;;;;;;;;;2.00;2.00;;;;;19.70;56.38;100014.17;105715;1295;21891;-62
2022/12/07 04:23:53;;;;;;;;;1.00;1.00;;;;;19.70;56.26;100012.29;105845;1272;21186;-62
2022/12/07 04:26:21;;;;;;;;;1.50;1.50;;;;;19.70;56.41;100010.83;105951;1294;18487;-63
2022/12/07 04:28:48;;;;;;;;;2.00;2.00;;;;;19.70;56.37;100012.29;105846;1286;19246;-62
2022/12/07 04:31:16;;;;;;;;;1.00;1.00;;;;;19.68;56.47;100008.36;105870;1280;18337;-63
2022/12/07 04:33:43;;;;;;;;;1.00;1.00;;;;;19.68;56.33;100008.86;105866;1286;19608;-62
2022/12/07 04:36:11;;;;;;;;;2.00;1.00;;;;;19.68;56.40;100011.38;105870;1279;20765;-61
2022/12/07 04:38:38;;;;;;;;;1.00;1.00;;;;;19.68;56.14;100010.29;105887;1276;22737;-63
2022/12/07 04:41:05;;;;;;;;;1.00;1.00;;;;;19.69;56.18;100011.45;105914;1291;18545;-62
2022/12/07 04:43:33;;;;;;;;;1.00;1.00;;;;;19.69;56.26;100011.24;105851;1293;21833;-63
2022/12/07 04:46:00;;;;;;;;;1.00;1.00;;;;;19.68;56.33;100007.77;105853;1280;18365;-62
2022/12/07 04:48:28;;;;;;;;;1.00;1.00;;;;;19.68;56.37;100008.32;105887;1272;18482;-62
2022/12/07 04:50:55;;;;;;;;;2.00;1.00;;;;;19.68;56.21;100006.49;105845;1272;20632;-61
2022/12/07 04:53:22;;;;;;;;;1.00;1.00;;;;;19.69;56.09;100007.38;105914;1282;21422;-62
2022/12/07 04:55:50;;;;;;;;;1.00;1.00;;;;;19.67;56.36;100006.21;105856;1294;18692;-59
2022/12/07 04:58:17;;;;;;;;;1.00;1.00;;;;;19.68;56.15;100004.85;105850;1286;19896;-61
2022/12/07 05:00:45;;;;;;;;;1.00;1.00;;;;;19.68;56.14;100002.03;105880;1279;19555;-62
2022/12/07 05:03:12;;;;;;;;;2.00;2.00;;;;;19.68;56.16;99996.93;105806;1280;21362;-61
2022/12/07 05:05:40;;;;;;;;;1.00;1.00;;;;;19.68;56.15;99990.95;105876;1288;22377;-62
2022/12/07 05:08:07;;;;;;;;;1.00;1.00;;;;;19.67;56.29;99988.34;105874;1294;19995;-62
2022/12/07 05:10:34;;;;;;;;;1.00;1.00;;;;;19.66;56.13;99985.16;105852;1286;19928;-62
2022/12/07 05:13:02;;;;;;;;;1.00;1.00;;;;;19.67;56.21;99984.20;105801;1288;19248;-61
2022/12/07 05:15:29;;;;;;;;;1.00;1.00;;;;;19.66;55.96;99983.33;105785;1272;22505;-61
2022/12/07 05:17:57;;;;;;;;;1.00;1.00;;;;;19.67;56.38;99985.77;105829;1279;19904;-62
2022/12/07 05:20:24;;;;;;;;;1.00;1.00;;;;;19.66;56.24;99985.70;105829;1272;19354;-61
2022/12/07 05:22:52;;;;;;;;;1.00;1.00;;;;;19.67;55.90;99986.34;105781;1272;18871;-61
2022/12/07 05:25:19;;;;;;;;;1.00;1.00;;;;;19.66;56.17;99984.95;105810;1295;18592;-62
2022/12/07 05:27:47;;;;;;;;;1.00;1.00;;;;;19.66;56.16;99981.90;105775;1272;22610;-61
2022/12/07 05:30:14;;;;;;;;;2.00;2.00;;;;;19.66;56.31;99983.15;105792;1280;18363;-62
2022/12/07 05:32:42;;;;;;;;;1.00;1.00;;;;;19.66;56.07;99984.45;105897;1295;18504;-62
2022/12/07 05:35:09;;;;;;;;;1.00;1.00;;;;;19.67;56.00;99982.57;105926;1295;22277;-62
2022/12/07 05:37:36;;;;;;;;;1.00;1.00;;;;;19.67;56.21;99984.04;105727;1272;18360;-62
2022/12/07 05:40:04;;;;;;;;;2.00;1.00;;;;;19.66;56.12;99984.32;105760;1272;18836;-63
2022/12/07 05:42:31;;;;;;;;;1.00;1.00;;;;;19.69;56.09;99982.41;105759;1279;22181;-62
2022/12/07 05:44:59;;;;;;;;;2.00;2.00;;;;;19.74;56.14;99988.61;105855;1272;19255;-62
2022/12/07 05:47:26;;;;;;;;;1.00;1.00;;;;;19.77;56.57;99993.10;105898;1278;22302;-62
2022/12/07 05:49:53;;;;;;;;;1.00;1.00;;;;;19.78;57.00;99993.56;105858;1280;19566;-62
2022/12/07 05:52:21;;;;;;;;;2.00;1.00;;;;;19.77;57.37;99995.65;105848;1280;18838;-61
2022/12/07 05:54:48;;;;;;;;;2.00;2.00;;;;;19.76;57.44;99992.84;105856;1286;18501;-62
2022/12/07 05:57:16;;;;;;;;;16.00;15.50;;;;;19.78;57.54;99996.83;105841;1286;20753;-62
2022/12/07 05:59:43;;;;;;;;;39.50;34.50;;;;;19.81;57.59;99993.90;105882;1273;19765;-61
2022/12/07 06:02:11;;;;;;;;;48.00;45.00;;;;;19.83;57.77;99998.02;105887;1285;18703;-62
2022/12/07 06:04:38;;;;;;;;;43.50;39.00;;;;;19.86;58.19;99997.23;105783;1280;19205;-61
2022/12/07 06:07:06;;;;;;;;;34.00;33.00;;;;;19.85;58.50;99996.80;105806;1279;18687;-61
2022/12/07 06:09:33;;;;;;;;;38.00;33.00;;;;;19.86;58.16;99998.52;105839;1280;21905;-61
2022/12/07 06:14:46;;;;;;;;;26.00;24.00;;;;;19.80;57.90;99995.98;105835;1279;22067;-61
2022/12/07 06:17:13;;;;;;;;;23.50;20.50;;;;;19.78;57.76;99996.41;105846;1280;18881;-64
2022/12/07 06:19:40;;;;;;;;;20.00;18.00;;;;;19.78;57.70;99996.91;105789;1279;22691;-63
2022/12/07 06:22:08;;;;;;;;;23.00;17.00;;;;;19.78;57.78;99996.08;105741;1272;21325;-61
2022/12/07 06:24:36;;;;;;;;;15.00;15.00;;;;;19.78;57.61;99998.30;105725;1279;18777;-61
2022/12/07 06:27:03;;;;;;;;;15.00;14.50;;;;;19.77;57.67;99995.31;105819;1286;20726;-62
2022/12/07 06:29:31;;;;;;;;;11.50;11.50;;;;;19.76;57.63;99996.14;105867;1272;19960;-63
2022/12/07 06:31:58;;;;;;;;;11.00;11.00;;;;;19.75;57.55;99997.51;105741;1272;19886;-61
2022/12/07 06:34:26;;;;;;;;;15.00;11.00;;;;;19.74;57.64;100001.55;105741;1288;19244;-62
2022/12/07 06:36:54;;;;;;;;;11.00;11.00;;;;;19.73;57.63;100000.69;105762;1280;18746;-63
2022/12/07 06:39:22;;;;;;;;;14.00;12.00;;;;;19.75;57.30;100004.98;105748;1280;20276;-62
2022/12/07 06:41:49;;;;;;;;;11.00;10.00;;;;;19.71;57.14;100006.54;105731;1295;20948;-61
2022/12/07 06:44:17;;;;;;;;;10.50;9.00;;;;;19.68;57.01;100001.99;105858;1286;18536;-62
2022/12/07 06:46:44;;;;;;;;;9.50;9.00;;;;;19.64;56.83;100006.60;105789;1295;18619;-61
2022/12/07 06:49:12;;;;;;;;;8.00;8.00;;;;;19.65;56.79;100005.68;105792;1289;20767;-61
2022/12/07 06:51:41;;;;;;;;;;;;;;;19.67;56.33;100003.37;105722;1280;18831;-62
2022/12/07 06:54:08;;;;;;;;;8.00;7.50;;;;;19.67;56.04;100006.80;105847;1279;19808;-62
2022/12/07 06:56:35;;;;;;;;;9.00;8.00;;;;;19.69;56.16;100005.95;105773;1294;20912;-62
2022/12/07 06:59:03;;;;;;;;;8.00;8.00;;;;;19.73;56.17;100010.57;105841;1280;18381;-64
2022/12/07 07:01:30;;;;;;;;;5.00;5.00;;;;;19.75;56.12;100009.15;105729;1286;23129;-63
2022/12/07 07:03:58;;;;;;;;;8.00;5.00;;;;;19.78;56.23;100013.23;105725;1279;21334;-62
2022/12/07 07:06:25;;;;;;;;;7.00;5.00;;;;;19.77;56.29;100008.02;105723;1295;22239;-61
2022/12/07 07:08:53;;;;;;;;;5.00;4.00;;;;;19.75;56.39;100008.35;105742;1272;19986;-61
2022/12/07 07:11:20;;;;;;;;;5.00;5.00;;;;;19.75;56.24;100013.62;105885;1295;22669;-62
2022/12/07 07:13:47;;;;;;;;;4.00;4.00;;;;;19.74;56.42;100009.58;105869;1293;18253;-62
2022/12/07 07:16:15;;;;;;;;;5.00;5.00;;;;;19.74;56.43;100005.58;105801;1280;20007;-62
2022/12/07 07:18:42;;;;;;;;;5.00;5.00;;;;;19.74;56.21;100008.48;105888;1280;19152;-62
2022/12/07 07:21:10;;;;;;;;;5.00;4.00;;;;;19.73;56.55;100009.15;105869;1272;18876;-62
2022/12/07 07:23:37;;;;;;;;;5.00;4.00;;;;;19.72;56.27;100006.37;105928;1294;18496;-61
2022/12/07 07:26:04;;;;;;;;;4.00;4.00;;;;;19.73;56.23;100006.80;105903;1280;22861;-62
2022/12/07 07:28:32;;;;;;;;;4.00;4.00;;;;;19.74;56.43;100005.27;105839;1272;19543;-61
2022/12/07 07:30:59;;;;;;;;;5.00;4.00;;;;;19.73;56.23;100007.34;105843;1280;23800;-62
2022/12/07 07:33:27;;;;;;;;;4.00;4.00;;;;;19.72;56.31;100009.29;105809;1294;20971;-60
2022/12/07 07:35:54;;;;;;;;;3.00;3.00;;;;;19.70;56.47;100007.32;105776;1280;19909;-58
2022/12/07 07:38:21;;;;;;;;;4.00;4.00;;;;;19.75;56.35;100009.89;105817;1272;18458;-62
2022/12/07 07:40:49;;;;;;;;;5.00;4.00;;;;;19.78;56.33;100012.93;105837;1280;19434;-61
2022/12/07 07:43:16;;;;;;;;;4.00;4.00;;;;;19.82;56.14;100011.73;105858;1265;19526;-62
2022/12/07 07:45:44;;;;;;;;;4.00;4.00;;;;;19.83;56.39;100013.55;105842;1295;20956;-62
2022/12/07 07:48:11;;;;;;;;;7.00;5.00;;;;;19.83;56.41;100012.96;105723;1295;19279;-62
2022/12/07 07:50:39;;;;;;;;;7.50;5.00;;;;;19.84;56.31;100015.23;105765;1295;21133;-61
2022/12/07 07:53:06;;;;;;;;;5.00;5.00;;;;;19.82;56.43;100019.15;105883;1279;18706;-62
2022/12/07 07:55:33;;;;;;;;;2.00;2.00;;;;;19.81;56.76;100015.13;105764;1280;19251;-58
2022/12/07 07:58:01;;;;;;;;;2.00;2.00;;;;;19.82;56.94;100016.06;105867;1279;20219;-61
2022/12/07 08:00:28;;;;;;;;;5.00;5.00;;;;;19.83;56.87;100020.20;105866;1295;18508;-61
2022/12/07 08:02:56;;;;;;;;;10.50;7.50;;;;;19.85;56.93;100018.25;105834;1292;19263;-61
2022/12/07 08:05:23;;;;;;;;;10.50;10.00;;;;;19.83;57.21;100017.15;105872;1279;18439;-63
2022/12/07 08:07:50;;;;;;;;;11.50;9.50;;;;;19.82;57.08;100013.17;105776;1294;18671;-62
2022/12/07 08:10:18;;;;;;;;;10.00;10.00;;;;;19.84;57.24;100017.65;105765;1295;21957;-60
2022/12/07 08:15:30;;;;;;;;;17.00;14.00;;;;;19.87;57.22;100018.37;105783;1288;20080;-61
2022/12/07 08:17:58;;;;;;;;;15.00;12.00;;;;;19.85;57.73;100016.99;105775;1273;19273;-60
2022/12/07 08:20:25;;;;;;;;;14.00;14.00;;;;;19.86;57.94;100016.85;105804;1280;20227;-60
2022/12/07 08:22:53;;;;;;;;;21.00;19.00;;;;;19.87;57.54;100016.48;105821;1279;19964;-62
2022/12/07 08:25:20;;;;;;;;;21.00;15.00;;;;;19.87;57.62;100013.11;105792;1294;19362;-59
2022/12/07 08:27:48;;;;;;;;;12.00;10.00;;;;;19.86;57.46;100010.66;105735;1286;18887;-61
2022/12/07 08:30:15;;;;;;;;;14.00;12.00;;;;;19.84;57.28;100010.13;105715;1292;18671;-59
2022/12/07 08:32:42;;;;;;;;;11.50;11.00;;;;;19.83;57.64;100016.44;105735;1295;20761;-62
2022/12/07 08:35:10;;;;;;;;;14.00;12.00;;;;;19.82;57.79;100014.80;105909;1294;18919;-61
2022/12/07 08:37:37;;;;;;;;;18.50;12.00;;;;;19.82;57.58;100015.73;105879;1279;18722;-60
2022/12/07 08:40:05;;;;;;;;;14.00;11.00;;;;;19.82;57.65;100014.12;105769;1280;22136;-61
2022/12/07 08:42:37;;;;;;;;;11.00;10.00;;;;;19.82;57.41;100009.52;105767;1273;18465;-62
2022/12/07 08:45:05;;;;;;;;;14.50;11.50;;;;;19.83;57.53;100008.54;105664;1279;21941;-62
2022/12/07 08:47:32;;;;;;;;;8.00;7.00;;;;;19.83;57.54;100006.90;105867;1297;20725;-62
2022/12/07 08:50:03;;;;;;;;;10.50;9.00;;;;;19.84;57.44;100006.23;105700;1280;22809;-61
2022/12/07 08:52:30;;;;;;;;;9.50;7.50;;;;;19.86;57.45;100007.80;105796;1289;20034;-62
2022/12/07 08:54:58;;;;;;;;;14.33;10.33;;;;;19.84;57.50;100008.88;105820;1287;20938;-63
2022/12/07 08:57:25;;;;;;;;;8.00;7.50;;;;;19.84;57.27;100005.48;105825;1294;18421;-62
2022/12/07 08:59:53;;;;;;;;;10.50;9.00;;;;;19.81;57.49;99998.89;105871;1294;19845;-61
2022/12/07 09:02:20;;;;;;;;;7.00;7.00;;;;;19.83;57.26;99997.41;105889;1298;20687;-63
2022/12/07 09:04:48;;;;;;;;;11.50;7.50;;;;;19.86;57.22;99997.77;105819;1273;20377;-60
2022/12/07 09:07:15;;;;;;;;;5.00;5.00;;;;;19.87;57.33;99994.44;105825;1278;21955;-61
2022/12/07 09:09:42;;;;;;;;;6.00;5.00;;;;;19.86;57.36;99993.73;105873;1280;19265;-61
2022/12/07 09:12:10;;;;;;;;;8.33;7.33;;;;;19.87;57.39;99991.88;105834;1280;20157;-62
2022/12/07 09:14:37;;;;;;;;;486.50;485.50;;;;;19.86;57.52;99990.84;105885;1286;20397;-63
2022/12/07 09:17:05;;;;;;;;;5.00;5.00;;;;;19.88;57.57;99985.55;105790;1293;22349;-62
2022/12/07 09:19:33;;;;;;;;;5.00;5.00;;;;;19.88;57.34;99983.38;105816;1295;18896;-64
2022/12/07 09:22:00;;;;;;;;;8.00;8.00;;;;;19.89;57.29;99980.41;105798;1295;19971;-62
2022/12/07 09:24:28;;;;;;;;;10.00;8.00;;;;;19.90;57.34;99974.95;105870;1295;19232;-64
2022/12/07 09:26:55;;;;;;;;;36.00;31.00;;;;;19.94;57.61;99971.23;105660;1273;19539;-63
2022/12/07 09:29:23;;;;;;;;;40.00;36.00;;;;;19.95;57.56;99971.58;105761;1278;21812;-64
2022/12/07 09:31:50;;;;;;;;;104.33;75.33;;;;;19.95;57.46;99969.23;105756;1272;19337;-63
2022/12/07 09:34:18;;;;;;;;;169.50;128.00;;;;;19.96;57.68;99966.98;105782;1280;18440;-63
2022/12/07 09:36:46;;;;;;;;;147.00;118.00;;;;;19.94;57.97;99965.26;105797;1273;18651;-62
2022/12/07 09:39:13;;;;;;;;;147.00;115.00;;;;;19.94;57.88;99961.79;105814;1279;20766;-62
2022/12/07 09:41:41;;;;;;;;;127.50;97.00;;;;;19.96;57.82;99964.57;105722;1280;20563;-62
2022/12/07 09:44:08;;;;;;;;;114.00;86.00;;;;;19.94;57.71;99961.20;105618;1280;18733;-64
2022/12/07 09:46:35;;;;;;;;;103.00;73.00;;;;;19.90;57.58;99956.91;105620;1272;20607;-64
2022/12/07 09:49:03;;;;;;;;;95.00;69.00;;;;;19.88;57.50;99951.16;105765;1295;18868;-64
2022/12/07 09:51:30;;;;;;;;;;;;;;;19.86;57.55;99947.73;105759;1276;18738;-63
2022/12/07 09:53:58;;;;;;;;;89.00;63.00;;;;;19.87;57.48;99939.23;105768;1288;20919;-63
2022/12/07 09:56:25;;;;;;;;;78.00;58.00;;;;;19.90;57.25;99940.21;105835;1294;20826;-63
2022/12/07 09:58:53;;;;;;;;;68.00;50.00;;;;;19.90;56.93;99938.58;105724;1280;19032;-62
2022/12/07 10:01:20;;;;;;;;;59.00;45.00;;;;;19.90;57.08;99925.99;105767;1272;21006;-64
2022/12/07 10:03:48;;;;;;;;;54.00;43.00;;;;;19.94;57.34;99928.02;105769;1280;24129;-62
2022/12/07 10:06:15;;;;;;;;;47.00;39.00;;;;;19.96;57.37;99925.81;105468;1280;23356;-64
2022/12/07 10:08:43;;;;;;;;;44.00;38.00;;;;;19.98;57.42;99928.14;105521;1272;19278;-64
2022/12/07 10:11:11;;;;;;;;;40.00;36.00;;;;;20.00;57.19;99928.96;105575;1288;20304;-63
2022/12/07 10:13:38;;;;;;;;;43.00;34.00;;;;;19.97;57.00;99925.31;105565;1282;19953;-63
2022/12/07 10:16:06;;;;;;;;;37.00;24.00;;;;;19.93;56.87;99922.02;105528;1275;19510;-63
2022/12/07 10:18:35;;;;;;;;;30.00;24.00;;;;;19.93;57.01;99920.98;105585;1289;18561;-62
2022/12/07 10:21:03;;;;;;;;;24.00;18.00;;;;;19.89;56.69;99920.84;105607;1279;20213;-64
2022/12/07 10:23:30;;;;;;;;;25.00;20.00;;;;;19.89;56.64;99911.46;105659;1282;20903;-64
2022/12/07 10:25:58;;;;;;;;;21.00;17.00;;;;;19.85;56.56;99913.02;105561;1272;20163;-64
2022/12/07 10:28:25;;;;;;;;;21.00;18.00;;;;;19.84;56.55;99909.35;105478;1279;22126;-64
2022/12/07 10:30:52;;;;;;;;;21.00;16.00;;;;;19.83;56.35;99907.20;105584;1289;20708;-64
2022/12/07 10:33:20;;;;;;;;;17.00;17.00;;;;;19.84;56.19;99905.58;105605;1297;21985;-64
2022/12/07 10:35:47;;;;;;;;;17.00;16.00;;;;;19.84;56.06;99900.18;105633;1291;23020;-64
2022/12/07 10:38:15;;;;;;;;;15.00;14.00;;;;;19.83;56.08;99902.11;105627;1275;19235;-62
2022/12/07 10:40:42;;;;;;;;;20.00;17.00;;;;;19.81;56.04;99901.80;105609;1295;20053;-63
2022/12/07 10:43:10;;;;;;;;;15.00;14.00;;;;;19.80;55.92;99890.88;105629;1288;18718;-64
2022/12/07 10:45:37;;;;;;;;;17.50;14.00;;;;;19.78;55.68;99891.42;105644;1282;19273;-64
2022/12/07 10:48:05;;;;;;;;;;;;;;;19.78;55.55;99892.25;105657;1275;18456;-64
2022/12/07 10:50:32;;;;;;;;;11.00;10.00;;;;;19.77;55.28;99886.64;105646;1297;19541;-61
2022/12/07 10:53:00;;;;;;;;;13.00;11.00;;;;;19.77;55.26;99883.42;105604;1282;22729;-61
2022/12/07 10:55:27;;;;;;;;;;;;;;;19.76;54.93;99880.86;105632;1272;20022;-64
2022/12/07 10:57:55;;;;;;;;;9.00;9.00;;;;;19.77;54.78;99883.80;105602;1279;18192;-63
2022/12/07 11:00:22;;;;;;;;;16.00;11.00;;;;;19.78;54.81;99877.15;105585;1289;20536;-63
2022/12/07 11:02:50;;;;;;;;;10.00;10.00;;;;;19.78;54.99;99873.18;105595;1279;23336;-63
2022/12/07 11:05:17;;;;;;;;;10.00;9.00;;;;;19.78;54.69;99866.98;105803;1275;20328;-62
2022/12/07 11:07:44;;;;;;;;;8.00;8.00;;;;;19.78;54.68;99866.83;105767;1300;19404;-63
2022/12/07 11:10:12;;;;;;;;;8.00;8.00;;;;;19.78;54.71;99863.59;105842;1294;20197;-63
2022/12/07 11:12:39;;;;;;;;;7.00;5.00;;;;;19.78;54.49;99863.39;105821;1294;18727;-63
2022/12/07 11:15:07;;;;;;;;;8.00;7.50;;;;;19.75;54.45;99859.39;105850;1276;23426;-61
2022/12/07 11:17:35;;;;;;;;;10.00;7.00;;;;;19.77;54.37;99857.36;105754;1287;19744;-64
2022/12/07 11:20:02;;;;;;;;;7.00;7.00;;;;;19.81;54.45;99856.11;105835;1288;24463;-62
2022/12/07 11:22:29;;;;;;;;;10.50;8.00;;;;;19.85;54.36;99853.29;105757;1280;21045;-62
2022/12/07 11:24:57;;;;;;;;;7.00;7.00;;;;;19.85;54.48;99853.02;105741;1272;19881;-63